Time;durP1;ratioP1;P1;durP2;ratioP2;P2;SDS_P1;SDS_P2;PMS_P1;PMS_P2;Temp;Humidity;BMP_temperature;BMP_pressure;BME280_temperature;BME280_humidity;BME280_pressure;Samples;Min_cycle;Max_cycle;Signal;HPM_P1;HPM_P2
2024/01/28 00:00:52;;;;;;;;;;;;;;;19.88;42.37;103076.69;2065210;28;6173;-61
2024/01/28 00:01:53;;;;;;;;;;;;;;;19.88;42.42;103076.69;2064764;28;1596;-61
2024/01/28 00:02:55;;;;;;;;;;;;;;;19.87;42.38;103073.06;2068510;28;1884;-61
2024/01/28 00:03:56;;;;;;;;;;;;;;;19.88;42.34;103076.69;2063335;28;2220;-61
2024/01/28 00:04:58;;;;;;;;;;;;;;;19.87;42.37;103069.44;2066143;28;2184;-61
2024/01/28 00:05:59;;;;;;;;;;;;;;;19.87;42.41;103075.19;2069766;28;1855;-61
2024/01/28 00:07:01;;;;;;;;;;;;;;;19.87;42.35;103075.19;2070199;28;2240;-61
2024/01/28 00:08:05;;;;;;;;;;;;;;;19.86;42.35;103065.81;2065653;28;2188;-61
2024/01/28 00:09:07;;;;;;;;;;;;;;;19.86;42.23;103073.69;2065406;28;2257;-63
2024/01/28 00:10:08;;;;;;;;;;;;;;;19.85;42.38;103072.13;2069910;28;1725;-62
2024/01/28 00:11:10;;;;;;;;;;;;;;;19.85;42.38;103075.75;2069635;28;2160;-62
2024/01/28 00:12:11;;;;;;;;;;;;;;;19.86;42.38;103082.31;2066421;28;2613;-61
2024/01/28 00:13:13;;;;;;;;;;;;;;;19.85;42.48;103075.75;2069976;28;2284;-62
2024/01/28 00:14:14;;;;;;;;;;;;;;;19.84;42.43;103085.00;2070029;28;1659;-62
2024/01/28 00:15:16;;;;;;;;;;;;;;;19.84;42.45;103085.00;2067374;28;2248;-62
2024/01/28 00:16:18;;;;;;;;;;;;;;;19.84;42.38;103076.38;2069683;28;2202;-62
2024/01/28 00:17:19;;;;;;;;;;;;;;;19.84;42.24;103082.13;2066640;28;2182;-61
2024/01/28 00:18:21;;;;;;;;;;;;;;;19.84;42.29;103076.38;2069415;28;1863;-62
2024/01/28 00:19:22;;;;;;;;;;;;;;;19.83;42.27;103081.34;2066896;28;2188;-62
2024/01/28 00:20:24;;;;;;;;;;;;;;;19.83;42.32;103074.84;2068488;28;1669;-61
2024/01/28 00:21:25;;;;;;;;;;;;;;;19.83;42.17;103078.47;2070747;28;1728;-62
2024/01/28 00:22:29;;;;;;;;;;;;;;;19.84;42.23;103076.38;2070237;28;1672;-62
2024/01/28 00:23:30;;;;;;;;;;;;;;;19.83;42.32;103071.97;2062992;28;2270;-62
2024/01/28 00:24:32;;;;;;;;;;;;;;;19.82;42.33;103068.34;2070730;28;1657;-62
2024/01/28 00:25:33;;;;;;;;;;;;;;;19.84;42.26;103070.63;2071094;28;1689;-61
2024/01/28 00:26:38;;;;;;;;;;;;;;;19.84;42.21;103064.88;2068702;28;2282;-61
2024/01/28 00:27:39;;;;;;;;;;;;;;;19.83;42.30;103064.09;2068770;28;2227;-61
2024/01/28 00:28:41;;;;;;;;;;;;;;;19.84;42.27;103053.38;2066601;28;1630;-61
2024/01/28 00:29:42;;;;;;;;;;;;;;;19.84;42.33;103064.88;2065603;28;1681;-62
2024/01/28 00:30:44;;;;;;;;;;;;;;;19.83;42.22;103057.59;2063136;28;6399;-62
2024/01/28 00:31:46;;;;;;;;;;;;;;;19.84;42.00;103057.00;2064034;28;2520;-62
2024/01/28 00:32:47;;;;;;;;;;;;;;;19.84;42.25;103057.00;2067550;28;2185;-61
2024/01/28 00:33:49;;;;;;;;;;;;;;;19.85;42.36;103061.38;2067121;28;2517;-61
2024/01/28 00:34:50;;;;;;;;;;;;;;;19.86;42.37;103059.28;2066271;28;1646;-62
2024/01/28 00:35:52;;;;;;;;;;;;;;;19.86;42.36;103068.69;2067474;28;1680;-62
2024/01/28 00:36:54;;;;;;;;;;;;;;;19.86;42.28;103068.69;2069304;28;2205;-61
2024/01/28 00:37:57;;;;;;;;;;;;;;;19.86;42.42;103065.03;2072604;28;1668;-62
2024/01/28 00:38:58;;;;;;;;;;;;;;;19.86;42.27;103062.94;2068854;28;1898;-61
2024/01/28 00:40:00;;;;;;;;;;;;;;;19.85;42.48;103067.13;2066034;28;1960;-62
2024/01/28 00:41:01;;;;;;;;;;;;;;;19.85;42.45;103067.13;2071220;28;1704;-62
2024/01/28 00:42:04;;;;;;;;;;;;;;;19.86;42.37;103059.28;2068555;28;1884;-62
2024/01/28 00:43:05;;;;;;;;;;;;;;;19.86;42.38;103073.69;2068369;28;2060;-61
2024/01/28 00:44:07;;;;;;;;;;;;;;;19.86;42.34;103067.91;2067314;28;2178;-61
2024/01/28 00:45:08;;;;;;;;;;;;;;;19.87;42.38;103069.44;2070199;28;2192;-61
2024/01/28 00:46:10;;;;;;;;;;;;;;;19.85;42.36;103075.75;2068640;28;1852;-61
2024/01/28 00:47:11;;;;;;;;;;;;;;;19.85;42.43;103069.25;2067847;28;2106;-62
2024/01/28 00:48:13;;;;;;;;;;;;;;;19.85;42.45;103075.00;2070205;28;1608;-62
2024/01/28 00:49:15;;;;;;;;;;;;;;;19.84;42.36;103070.63;2069309;28;2423;-62
2024/01/28 00:50:16;;;;;;;;;;;;;;;19.83;42.47;103069.09;2068294;28;1924;-62
2024/01/28 00:51:18;;;;;;;;;;;;;;;19.82;42.45;103068.34;2067546;28;2089;-62
2024/01/28 00:52:19;;;;;;;;;;;;;;;19.83;42.37;103069.09;2068450;28;1878;-62
2024/01/28 00:53:21;;;;;;;;;;;;;;;19.83;42.30;103075.59;2065147;28;2136;-61
2024/01/28 00:54:23;;;;;;;;;;;;;;;19.82;42.29;103079.84;2069233;28;1755;-61
2024/01/28 00:55:24;;;;;;;;;;;;;;;19.83;42.23;103077.72;2064225;28;2245;-62
2024/01/28 00:56:26;;;;;;;;;;;;;;;19.84;42.31;103073.50;2063767;28;1938;-62
2024/01/28 00:57:27;;;;;;;;;;;;;;;19.83;42.39;103080.59;2067287;28;2227;-62
2024/01/28 00:58:29;;;;;;;;;;;;;;;19.83;42.39;103081.34;2067274;28;1879;-61
2024/01/28 00:59:30;;;;;;;;;;;;;;;19.83;42.31;103084.22;2071532;28;1920;-62
2024/01/28 01:00:32;;;;;;;;;;;;;;;19.84;42.26;103076.38;2066495;28;6218;-61
2024/01/28 01:01:33;;;;;;;;;;;;;;;19.83;42.29;103075.59;2064795;28;2247;-62
2024/01/28 01:02:35;;;;;;;;;;;;;;;19.84;42.39;103080.00;2068230;28;1526;-62
2024/01/28 01:03:37;;;;;;;;;;;;;;;19.84;42.29;103082.13;2069444;28;1653;-61
2024/01/28 01:04:38;;;;;;;;;;;;;;;19.85;42.29;103083.63;2069546;28;2279;-62
2024/01/28 01:05:41;;;;;;;;;;;;;;;19.85;42.31;103083.63;2066187;28;2362;-62
2024/01/28 01:06:44;;;;;;;;;;;;;;;19.85;42.32;103075.00;2067651;28;2219;-62
2024/01/28 01:07:45;;;;;;;;;;;;;;;19.85;42.28;103084.41;2069400;28;2264;-61
2024/01/28 01:08:47;;;;;;;;;;;;;;;19.85;42.30;103077.88;2065691;28;2246;-62
2024/01/28 01:09:48;;;;;;;;;;;;;;;19.86;42.15;103082.31;2069901;28;1672;-62
2024/01/28 01:10:50;;;;;;;;;;;;;;;19.85;42.16;103081.50;2067714;28;2136;-61
2024/01/28 01:11:51;;;;;;;;;;;;;;;19.86;42.42;103079.44;2068462;28;1650;-62
2024/01/28 01:12:52;;;;;;;;;;;;;;;19.86;42.43;103074.44;2070611;28;1664;-61
2024/01/28 01:13:54;;;;;;;;;;;;;;;19.86;42.26;103067.91;2066540;28;1622;-62
2024/01/28 01:14:55;;;;;;;;;;;;;;;19.86;42.27;103065.03;2066762;28;2226;-62
2024/01/28 01:15:56;;;;;;;;;;;;;;;19.86;42.27;103079.44;2070042;28;2156;-61
2024/01/28 01:16:58;;;;;;;;;;;;;;;19.85;42.36;103066.38;2067990;28;2071;-62
2024/01/28 01:17:59;;;;;;;;;;;;;;;19.85;42.29;103075.00;2067634;28;2264;-61
2024/01/28 01:19:01;;;;;;;;;;;;;;;19.85;42.29;103077.88;2069768;28;1605;-62
2024/01/28 01:20:03;;;;;;;;;;;;;;;19.84;42.33;103068.50;2066315;28;1688;-61
2024/01/28 01:21:04;;;;;;;;;;;;;;;19.85;42.32;103069.25;2066617;28;2169;-61
2024/01/28 01:22:05;;;;;;;;;;;;;;;19.84;42.16;103065.63;2070078;28;2191;-61
2024/01/28 01:23:07;;;;;;;;;;;;;;;19.84;42.35;103070.63;2069352;28;1898;-61
2024/01/28 01:24:08;;;;;;;;;;;;;;;19.84;42.26;103065.63;2067484;28;2154;-62
2024/01/28 01:25:11;;;;;;;;;;;;;;;19.84;42.30;103053.38;2067502;28;2580;-62
2024/01/28 01:26:12;;;;;;;;;;;;;;;19.84;42.37;103067.75;2066300;28;2065;-61
2024/01/28 01:27:14;;;;;;;;;;;;;;;19.82;42.31;103062.59;2067094;28;1929;-62
2024/01/28 01:28:15;;;;;;;;;;;;;;;19.83;42.21;103063.34;2070106;28;1704;-62
2024/01/28 01:29:17;;;;;;;;;;;;;;;19.82;42.32;103064.69;2070923;28;1867;-61
2024/01/28 01:30:19;;;;;;;;;;;;;;;19.82;42.34;103058.94;2064390;28;6012;-62
2024/01/28 01:31:21;;;;;;;;;;;;;;;19.81;42.33;103063.16;2066132;28;1977;-62
2024/01/28 01:32:22;;;;;;;;;;;;;;;19.81;42.22;103063.16;2068344;28;1722;-62
2024/01/28 01:33:23;;;;;;;;;;;;;;;19.80;42.21;103058.78;2070182;28;1716;-62
2024/01/28 01:34:25;;;;;;;;;;;;;;;19.81;42.16;103066.81;2065596;28;2042;-62
2024/01/28 01:35:27;;;;;;;;;;;;;;;19.81;42.19;103071.78;2066713;28;2221;-62
2024/01/28 01:36:28;;;;;;;;;;;;;;;19.82;42.21;103067.56;2069280;28;1572;-61
2024/01/28 01:37:29;;;;;;;;;;;;;;;19.81;42.19;103068.91;2069252;28;2389;-61
2024/01/28 01:38:31;;;;;;;;;;;;;;;19.82;42.07;103071.22;2065529;28;2203;-61
2024/01/28 01:39:32;;;;;;;;;;;;;;;19.83;42.25;103074.84;2067173;28;1794;-61
2024/01/28 01:40:34;;;;;;;;;;;;;;;19.82;42.20;103070.44;2063850;28;2239;-61
2024/01/28 01:41:35;;;;;;;;;;;;;;;19.83;42.19;103066.97;2064969;28;2093;-61
2024/01/28 01:42:37;;;;;;;;;;;;;;;19.84;42.09;103073.50;2071551;28;1643;-61
2024/01/28 01:43:39;;;;;;;;;;;;;;;19.83;42.27;103063.34;2068641;28;1905;-62
2024/01/28 01:44:40;;;;;;;;;;;;;;;19.83;42.28;103066.97;2068797;28;2196;-62
2024/01/28 01:45:42;;;;;;;;;;;;;;;19.83;42.19;103063.34;2063106;28;2293;-62
2024/01/28 01:46:45;;;;;;;;;;;;;;;19.83;42.11;103064.09;2070959;28;1977;-62
2024/01/28 01:47:46;;;;;;;;;;;;;;;19.84;42.24;103073.50;2065840;28;1919;-61
2024/01/28 01:48:49;;;;;;;;;;;;;;;19.84;42.25;103067.75;2071603;28;1576;-62
2024/01/28 01:49:51;;;;;;;;;;;;;;;19.84;42.21;103067.75;2065809;28;2156;-61
2024/01/28 01:50:53;;;;;;;;;;;;;;;19.84;42.26;103065.63;2068330;28;2235;-62
2024/01/28 01:51:54;;;;;;;;;;;;;;;19.83;42.19;103066.97;2072193;28;2547;-61
2024/01/28 01:52:56;;;;;;;;;;;;;;;19.84;42.22;103082.13;2070716;28;1935;-62
2024/01/28 01:53:58;;;;;;;;;;;;;;;19.84;42.22;103080.00;2065938;28;2223;-62
2024/01/28 01:55:00;;;;;;;;;;;;;;;19.85;42.22;103072.13;2067194;28;1669;-62
2024/01/28 01:56:02;;;;;;;;;;;;;;;19.84;42.22;103076.38;2065561;28;1645;-61
2024/01/28 01:57:03;;;;;;;;;;;;;;;19.84;42.25;103077.13;2067838;28;1764;-62
2024/01/28 01:58:05;;;;;;;;;;;;;;;19.84;42.23;103073.50;2066244;28;2157;-62
2024/01/28 01:59:07;;;;;;;;;;;;;;;19.83;42.31;103069.09;2066951;28;2283;-61
2024/01/28 02:00:08;;;;;;;;;;;;;;;19.83;42.19;103074.84;2063413;28;6278;-62
2024/01/28 02:01:11;;;;;;;;;;;;;;;19.83;42.23;103074.84;2068120;28;2513;-62
2024/01/28 02:02:12;;;;;;;;;;;;;;;19.82;42.13;103073.31;2067727;28;2255;-62
2024/01/28 02:03:14;;;;;;;;;;;;;;;19.82;42.24;103070.44;2069248;28;1891;-62
2024/01/28 02:04:15;;;;;;;;;;;;;;;19.80;42.23;103071.03;2067380;28;1646;-62
2024/01/28 02:05:17;;;;;;;;;;;;;;;19.82;42.24;103073.31;2067544;28;2213;-62
2024/01/28 02:06:18;;;;;;;;;;;;;;;19.81;42.03;103071.78;2069806;28;2374;-62
2024/01/28 02:07:19;;;;;;;;;;;;;;;19.81;42.16;103060.28;2066487;28;2286;-62
2024/01/28 02:08:21;;;;;;;;;;;;;;;19.80;42.26;103071.03;2068651;28;1910;-62
2024/01/28 02:09:22;;;;;;;;;;;;;;;19.79;42.24;103066.66;2067246;28;2321;-62
2024/01/28 02:10:25;;;;;;;;;;;;;;;19.79;42.16;103069.53;2068649;28;1681;-62
2024/01/28 02:11:26;;;;;;;;;;;;;;;19.80;42.17;103076.03;2064832;28;2197;-62
2024/01/28 02:12:28;;;;;;;;;;;;;;;19.80;42.15;103078.91;2067462;28;2378;-62
2024/01/28 02:13:29;;;;;;;;;;;;;;;19.79;42.13;103063.78;2067415;28;1637;-62
2024/01/28 02:14:31;;;;;;;;;;;;;;;19.80;42.15;103076.03;2067574;28;1716;-62
2024/01/28 02:15:37;;;;;;;;;;;;;;;19.80;42.10;103070.28;2064925;28;2291;-62
2024/01/28 02:16:39;;;;;;;;;;;;;;;19.80;42.12;103076.03;2065577;28;1724;-62
2024/01/28 02:17:40;;;;;;;;;;;;;;;19.79;42.00;103069.53;2069069;28;2199;-62
2024/01/28 02:18:42;;;;;;;;;;;;;;;19.80;42.16;103076.03;2062896;28;1915;-62
2024/01/28 02:19:43;;;;;;;;;;;;;;;19.80;42.20;103071.03;2063602;28;1593;-62
2024/01/28 02:20:45;;;;;;;;;;;;;;;19.80;42.12;103073.16;2066478;28;1831;-62
2024/01/28 02:21:46;;;;;;;;;;;;;;;19.80;42.10;103071.03;2066907;28;2212;-62
2024/01/28 02:22:48;;;;;;;;;;;;;;;19.81;42.09;103074.66;2067700;28;2183;-62
2024/01/28 02:23:49;;;;;;;;;;;;;;;19.81;42.09;103071.78;2067035;28;1648;-62
2024/01/28 02:24:51;;;;;;;;;;;;;;;19.80;42.13;103071.03;2067985;28;1614;-62
2024/01/28 02:25:52;;;;;;;;;;;;;;;19.81;42.05;103072.56;2066763;28;2184;-62
2024/01/28 02:26:54;;;;;;;;;;;;;;;19.82;42.08;103073.31;2064184;28;1660;-62
2024/01/28 02:27:55;;;;;;;;;;;;;;;19.82;42.02;103067.56;2065503;28;2227;-62
2024/01/28 02:28:57;;;;;;;;;;;;;;;19.83;42.14;103069.09;2061920;28;1668;-62
2024/01/28 02:29:58;;;;;;;;;;;;;;;19.83;42.07;103066.22;2067728;28;1744;-62
2024/01/28 02:30:59;;;;;;;;;;;;;;;19.82;42.13;103061.81;2064109;28;6171;-62
2024/01/28 02:32:01;;;;;;;;;;;;;;;19.82;42.21;103067.56;2067485;28;1653;-62
2024/01/28 02:33:02;;;;;;;;;;;;;;;19.81;42.02;103060.28;2067690;28;1629;-62
2024/01/28 02:34:04;;;;;;;;;;;;;;;19.82;42.13;103056.06;2069602;28;2079;-62
2024/01/28 02:35:06;;;;;;;;;;;;;;;19.82;41.95;103056.06;2065793;28;2378;-62
2024/01/28 02:36:07;;;;;;;;;;;;;;;19.81;42.13;103055.31;2068666;28;1641;-62
2024/01/28 02:37:12;;;;;;;;;;;;;;;19.82;42.19;103056.06;2065724;28;2139;-62
2024/01/28 02:38:13;;;;;;;;;;;;;;;19.82;42.10;103061.81;2069406;28;2403;-62
2024/01/28 02:39:14;;;;;;;;;;;;;;;19.81;42.07;103054.53;2067182;28;2110;-62
2024/01/28 02:40:16;;;;;;;;;;;;;;;19.81;42.14;103055.31;2070982;28;1935;-62
2024/01/28 02:41:17;;;;;;;;;;;;;;;19.80;42.22;103053.78;2066402;28;2330;-62
2024/01/28 02:42:19;;;;;;;;;;;;;;;19.79;42.16;103052.28;2065961;28;1658;-62
2024/01/28 02:43:20;;;;;;;;;;;;;;;19.79;42.03;103045.75;2066647;28;1933;-62
2024/01/28 02:44:22;;;;;;;;;;;;;;;19.80;42.23;103053.03;2070471;28;1878;-62
2024/01/28 02:45:23;;;;;;;;;;;;;;;19.79;42.04;103055.16;2063819;28;2391;-62
2024/01/28 02:46:24;;;;;;;;;;;;;;;19.78;42.16;103049.97;2068437;28;1704;-62
2024/01/28 02:47:26;;;;;;;;;;;;;;;19.79;42.04;103054.38;2067156;28;2292;-62
2024/01/28 02:48:27;;;;;;;;;;;;;;;19.77;41.96;103051.31;2065745;28;1902;-62
2024/01/28 02:49:29;;;;;;;;;;;;;;;19.78;42.10;103049.97;2066901;28;1938;-62
2024/01/28 02:50:30;;;;;;;;;;;;;;;19.77;42.10;103048.44;2067790;28;1985;-62
2024/01/28 02:51:32;;;;;;;;;;;;;;;19.77;42.04;103051.31;2066708;28;2149;-62
2024/01/28 02:52:33;;;;;;;;;;;;;;;19.76;42.04;103047.69;2067459;28;1560;-62
2024/01/28 02:53:34;;;;;;;;;;;;;;;19.78;42.08;103041.34;2066328;28;1636;-62
2024/01/28 02:54:36;;;;;;;;;;;;;;;19.77;42.10;103042.69;2067665;28;1821;-62
2024/01/28 02:55:37;;;;;;;;;;;;;;;19.77;42.08;103036.94;2064771;28;2212;-62
2024/01/28 02:56:39;;;;;;;;;;;;;;;19.76;42.07;103041.94;2070720;28;1858;-62
2024/01/28 02:57:40;;;;;;;;;;;;;;;19.78;42.09;103041.34;2072473;28;2282;-63
2024/01/28 02:58:42;;;;;;;;;;;;;;;19.78;42.06;103044.22;2071848;28;1786;-62
2024/01/28 02:59:43;;;;;;;;;;;;;;;19.76;42.15;103041.19;2069010;28;1802;-62
2024/01/28 03:00:44;;;;;;;;;;;;;;;19.78;42.10;103038.47;2064676;28;6167;-61
2024/01/28 03:01:47;;;;;;;;;;;;;;;19.78;42.00;103035.59;2066159;28;2297;-62
2024/01/28 03:02:48;;;;;;;;;;;;;;;19.79;42.01;103048.63;2070804;28;1783;-62
2024/01/28 03:03:50;;;;;;;;;;;;;;;19.79;41.99;103045.75;2068234;28;1826;-62
2024/01/28 03:04:51;;;;;;;;;;;;;;;19.78;42.04;103047.09;2065100;28;2117;-62
2024/01/28 03:05:52;;;;;;;;;;;;;;;19.79;41.96;103048.63;2066188;28;1958;-62
2024/01/28 03:06:54;;;;;;;;;;;;;;;19.79;42.00;103048.63;2066597;28;2163;-62
2024/01/28 03:07:55;;;;;;;;;;;;;;;19.79;41.99;103040.00;2065875;28;2237;-62
2024/01/28 03:08:56;;;;;;;;;;;;;;;19.79;41.98;103051.50;2065479;28;2306;-62
2024/01/28 03:09:58;;;;;;;;;;;;;;;19.79;41.95;103051.50;2068056;28;2456;-62
2024/01/28 03:11:00;;;;;;;;;;;;;;;19.78;41.93;103044.22;2065589;28;2217;-62
2024/01/28 03:12:01;;;;;;;;;;;;;;;19.77;41.99;103042.69;2068715;28;1834;-62
2024/01/28 03:13:03;;;;;;;;;;;;;;;19.78;42.09;103047.88;2067353;28;1544;-62
2024/01/28 03:14:06;;;;;;;;;;;;;;;19.77;42.08;103042.69;2064842;28;1611;-62
2024/01/28 03:15:08;;;;;;;;;;;;;;;19.76;41.99;103041.94;2067174;28;2167;-62
2024/01/28 03:16:10;;;;;;;;;;;;;;;19.76;41.99;103041.19;2066183;28;2152;-62
2024/01/28 03:17:12;;;;;;;;;;;;;;;19.77;41.95;103036.94;2064338;28;1660;-62
2024/01/28 03:18:13;;;;;;;;;;;;;;;19.76;42.08;103041.19;2068311;28;2230;-62
2024/01/28 03:19:15;;;;;;;;;;;;;;;19.75;41.96;103039.69;2064435;28;1826;-62
2024/01/28 03:20:17;;;;;;;;;;;;;;;19.75;42.08;103039.69;2065704;28;2439;-62
2024/01/28 03:21:18;;;;;;;;;;;;;;;19.74;42.02;103041.00;2066549;28;2157;-62
2024/01/28 03:22:20;;;;;;;;;;;;;;;19.74;41.99;103043.88;2067722;28;2141;-62
2024/01/28 03:23:22;;;;;;;;;;;;;;;19.73;41.99;103036.63;2069398;28;1640;-62
2024/01/28 03:24:23;;;;;;;;;;;;;;;19.72;42.02;103035.84;2069016;28;1669;-62
2024/01/28 03:25:24;;;;;;;;;;;;;;;19.71;41.99;103033.56;2065156;28;1653;-62
2024/01/28 03:26:26;;;;;;;;;;;;;;;19.71;42.04;103039.31;2065202;28;2247;-62
2024/01/28 03:27:27;;;;;;;;;;;;;;;19.70;42.10;103037.78;2066639;28;2216;-62
2024/01/28 03:28:29;;;;;;;;;;;;;;;19.70;41.97;103037.78;2068454;28;1946;-62
2024/01/28 03:29:30;;;;;;;;;;;;;;;19.70;41.87;103040.66;2068726;28;2243;-62
2024/01/28 03:30:31;;;;;;;;;;;;;;;19.69;41.84;103037.03;2066570;28;6085;-62
2024/01/28 03:31:33;;;;;;;;;;;;;;;19.69;41.82;103036.28;2069213;28;2159;-62
2024/01/28 03:32:34;;;;;;;;;;;;;;;19.69;41.91;103037.03;2066767;28;1760;-62
2024/01/28 03:33:36;;;;;;;;;;;;;;;19.69;41.92;103036.28;2067261;28;1770;-62
2024/01/28 03:34:37;;;;;;;;;;;;;;;19.70;41.79;103043.53;2071265;28;2187;-62
2024/01/28 03:35:39;;;;;;;;;;;;;;;19.71;41.76;103033.56;2068611;28;2167;-62
2024/01/28 03:36:40;;;;;;;;;;;;;;;19.70;41.78;103032.03;2069359;28;1836;-62
2024/01/28 03:37:41;;;;;;;;;;;;;;;19.72;41.74;103035.09;2067541;28;2368;-62
2024/01/28 03:38:43;;;;;;;;;;;;;;;19.73;41.85;103037.38;2071726;28;1633;-62
2024/01/28 03:39:44;;;;;;;;;;;;;;;19.73;41.82;103028.75;2069648;28;1974;-62
2024/01/28 03:40:46;;;;;;;;;;;;;;;19.74;41.84;103038.13;2069915;28;1744;-62
2024/01/28 03:41:47;;;;;;;;;;;;;;;19.74;41.78;103044.63;2063343;28;2299;-62
2024/01/28 03:42:48;;;;;;;;;;;;;;;19.75;41.81;103036.81;2067559;28;1887;-62
2024/01/28 03:43:50;;;;;;;;;;;;;;;19.76;41.76;103035.44;2066807;28;1690;-62
2024/01/28 03:44:51;;;;;;;;;;;;;;;19.76;41.83;103039.06;2066704;28;2310;-62
2024/01/28 03:45:53;;;;;;;;;;;;;;;19.76;41.67;103041.19;2069710;28;2196;-62
2024/01/28 03:46:54;;;;;;;;;;;;;;;19.77;41.81;103039.81;2067885;28;2205;-62
2024/01/28 03:47:56;;;;;;;;;;;;;;;19.77;41.82;103042.69;2070678;28;1632;-62
2024/01/28 03:48:57;;;;;;;;;;;;;;;19.77;41.80;103040.59;2066588;28;1907;-62
2024/01/28 03:49:59;;;;;;;;;;;;;;;19.77;41.85;103031.97;2067927;28;1678;-62
2024/01/28 03:51:00;;;;;;;;;;;;;;;19.77;41.67;103036.94;2069245;28;2218;-62
2024/01/28 03:52:02;;;;;;;;;;;;;;;19.76;41.80;103033.31;2070429;28;2280;-62
2024/01/28 03:53:04;;;;;;;;;;;;;;;19.79;41.94;103034.25;2067701;28;1625;-62
2024/01/28 03:54:06;;;;;;;;;;;;;;;19.78;41.91;103038.47;2068331;28;2191;-62
2024/01/28 03:55:07;;;;;;;;;;;;;;;19.79;41.79;103034.25;2068221;28;2136;-62
2024/01/28 03:56:09;;;;;;;;;;;;;;;19.79;41.97;103035.03;2071898;28;2250;-62
2024/01/28 03:57:11;;;;;;;;;;;;;;;19.79;41.92;103034.25;2070653;28;2159;-62
2024/01/28 03:58:12;;;;;;;;;;;;;;;19.80;41.79;103041.53;2068722;28;1986;-62
2024/01/28 03:59:13;;;;;;;;;;;;;;;19.80;41.89;103035.78;2066837;28;2266;-62
2024/01/28 04:00:15;;;;;;;;;;;;;;;19.80;41.93;103032.91;2068100;28;6149;-62
2024/01/28 04:01:16;;;;;;;;;;;;;;;19.81;41.95;103037.28;2066964;28;2152;-62
2024/01/28 04:02:18;;;;;;;;;;;;;;;19.81;41.84;103034.41;2068104;28;1898;-62
2024/01/28 04:03:20;;;;;;;;;;;;;;;19.82;41.95;103036.69;2071272;28;1679;-62
2024/01/28 04:04:21;;;;;;;;;;;;;;;19.82;41.92;103033.81;2069145;28;2283;-62
2024/01/28 04:05:23;;;;;;;;;;;;;;;19.82;41.81;103030.19;2068692;28;1625;-62
2024/01/28 04:06:25;;;;;;;;;;;;;;;19.83;41.89;103029.59;2065571;28;2200;-62
2024/01/28 04:07:26;;;;;;;;;;;;;;;19.83;41.97;103023.84;2066149;28;2164;-62
2024/01/28 04:08:28;;;;;;;;;;;;;;;19.84;41.95;103033.25;2068948;28;1654;-62
2024/01/28 04:09:29;;;;;;;;;;;;;;;19.85;41.87;103026.13;2064006;28;2224;-62
2024/01/28 04:10:31;;;;;;;;;;;;;;;19.85;41.96;103023.25;2067294;28;1883;-62
2024/01/28 04:11:32;;;;;;;;;;;;;;;19.84;42.00;103024.63;2068801;28;2121;-62
2024/01/28 04:12:33;;;;;;;;;;;;;;;19.84;41.90;103030.38;2072534;28;1764;-62
2024/01/28 04:13:35;;;;;;;;;;;;;;;19.84;41.92;103028.25;2069812;28;1672;-62
2024/01/28 04:14:36;;;;;;;;;;;;;;;19.85;41.92;103026.13;2066086;28;2267;-62
2024/01/28 04:15:38;;;;;;;;;;;;;;;19.85;41.95;103031.88;2068986;28;2204;-62
2024/01/28 04:16:39;;;;;;;;;;;;;;;19.85;41.98;103032.63;2066115;28;2231;-62
2024/01/28 04:17:40;;;;;;;;;;;;;;;19.86;42.02;103030.53;2066191;28;2121;-62
2024/01/28 04:18:42;;;;;;;;;;;;;;;19.85;41.96;103029.00;2065479;28;1626;-62
2024/01/28 04:19:43;;;;;;;;;;;;;;;19.86;41.86;103022.66;2069238;28;2180;-62
2024/01/28 04:20:45;;;;;;;;;;;;;;;19.87;41.89;103032.06;2068094;28;2219;-63
2024/01/28 04:21:46;;;;;;;;;;;;;;;19.87;41.83;103023.44;2065451;28;1796;-62
2024/01/28 04:22:48;;;;;;;;;;;;;;;19.87;41.90;103029.19;2067817;28;1697;-62
2024/01/28 04:23:51;;;;;;;;;;;;;;;19.87;41.84;103027.06;2067543;28;2101;-62
2024/01/28 04:24:53;;;;;;;;;;;;;;;19.88;41.94;103027.81;2067103;28;2227;-62
2024/01/28 04:25:54;;;;;;;;;;;;;;;19.89;41.90;103032.22;2065862;28;2174;-62
2024/01/28 04:26:56;;;;;;;;;;;;;;;19.89;41.98;103032.22;2071726;28;2502;-62
2024/01/28 04:27:58;;;;;;;;;;;;;;;19.90;41.99;103027.97;2068988;28;1644;-62
2024/01/28 04:29:00;;;;;;;;;;;;;;;19.90;41.79;103032.97;2068254;28;1903;-62
2024/01/28 04:30:01;;;;;;;;;;;;;;;19.88;41.99;103024.94;2064985;28;6300;-61
2024/01/28 04:31:02;;;;;;;;;;;;;;;19.90;41.81;103032.97;2069946;28;2596;-62
2024/01/28 04:32:04;;;;;;;;;;;;;;;19.90;42.08;103033.72;2067072;28;1594;-62
2024/01/28 04:33:05;;;;;;;;;;;;;;;19.90;42.00;103045.22;2067527;28;1688;-62
2024/01/28 04:34:07;;;;;;;;;;;;;;;19.89;41.84;103037.97;2064009;28;2137;-62
2024/01/28 04:35:10;;;;;;;;;;;;;;;19.90;41.85;103038.72;2067638;28;2125;-62
2024/01/28 04:36:11;;;;;;;;;;;;;;;19.89;42.06;103040.84;2066894;28;2328;-62
2024/01/28 04:37:13;;;;;;;;;;;;;;;19.89;41.93;103040.84;2070927;28;1657;-62
2024/01/28 04:38:14;;;;;;;;;;;;;;;19.88;42.04;103039.31;2067453;28;2125;-62
2024/01/28 04:39:15;;;;;;;;;;;;;;;19.88;42.01;103039.31;2068615;28;2120;-63
2024/01/28 04:40:17;;;;;;;;;;;;;;;19.89;41.97;103040.84;2065928;28;1578;-62
2024/01/28 04:41:18;;;;;;;;;;;;;;;19.87;41.93;103035.69;2069014;28;1655;-62
2024/01/28 04:42:22;;;;;;;;;;;;;;;19.87;41.82;103034.94;2068496;28;2176;-62
2024/01/28 04:43:24;;;;;;;;;;;;;;;19.87;42.03;103032.06;2068589;28;1876;-62
2024/01/28 04:44:25;;;;;;;;;;;;;;;19.86;42.02;103039.16;2068327;28;2101;-62
2024/01/28 04:45:27;;;;;;;;;;;;;;;19.85;42.00;103032.63;2067888;28;2287;-62
2024/01/28 04:46:28;;;;;;;;;;;;;;;19.86;42.04;103044.91;2069815;28;1670;-62
2024/01/28 04:47:29;;;;;;;;;;;;;;;19.86;41.85;103042.03;2066699;28;1667;-62
2024/01/28 04:48:31;;;;;;;;;;;;;;;19.86;41.95;103042.03;2068559;28;1863;-62
2024/01/28 04:49:32;;;;;;;;;;;;;;;19.86;41.98;103039.16;2064222;28;2275;-62
2024/01/28 04:50:35;;;;;;;;;;;;;;;19.85;41.90;103032.63;2067099;28;2192;-62
2024/01/28 04:51:36;;;;;;;;;;;;;;;19.87;41.96;103040.69;2070601;28;1882;-62
2024/01/28 04:52:38;;;;;;;;;;;;;;;19.86;42.00;103039.16;2065483;28;1637;-62
2024/01/28 04:53:39;;;;;;;;;;;;;;;19.86;41.97;103044.91;2069381;28;1860;-62
2024/01/28 04:54:41;;;;;;;;;;;;;;;19.87;41.96;103041.44;2069616;28;2184;-62
2024/01/28 04:55:43;;;;;;;;;;;;;;;19.87;41.97;103046.44;2068079;28;2106;-62
2024/01/28 04:56:44;;;;;;;;;;;;;;;19.87;41.98;103043.56;2066256;28;2233;-62
2024/01/28 04:57:45;;;;;;;;;;;;;;;19.86;41.98;103039.94;2066950;28;1734;-62
2024/01/28 04:58:47;;;;;;;;;;;;;;;19.88;42.03;103040.09;2067291;28;1554;-62
2024/01/28 04:59:49;;;;;;;;;;;;;;;19.86;41.98;103034.16;2068694;28;1985;-62
2024/01/28 05:00:51;;;;;;;;;;;;;;;19.87;41.96;103046.44;2065599;28;6373;-62
2024/01/28 05:01:52;;;;;;;;;;;;;;;19.88;42.03;103050.81;2071246;28;1697;-62
2024/01/28 05:02:55;;;;;;;;;;;;;;;19.88;42.05;103047.94;2071030;28;1942;-62
2024/01/28 05:03:57;;;;;;;;;;;;;;;19.89;42.05;103049.47;2068480;28;2076;-62
2024/01/28 05:04:58;;;;;;;;;;;;;;;19.89;41.98;103052.34;2064988;28;2188;-62
2024/01/28 05:05:59;;;;;;;;;;;;;;;19.90;41.94;103038.72;2066922;28;2229;-62
2024/01/28 05:07:01;;;;;;;;;;;;;;;19.89;41.99;103049.47;2067560;28;2195;-62
2024/01/28 05:08:03;;;;;;;;;;;;;;;19.90;41.98;103050.97;2068255;28;1946;-62
2024/01/28 05:09:06;;;;;;;;;;;;;;;19.90;41.97;103050.97;2067659;28;2284;-62
2024/01/28 05:10:09;;;;;;;;;;;;;;;19.91;41.98;103051.78;2070472;28;1918;-62
2024/01/28 05:11:10;;;;;;;;;;;;;;;19.91;41.88;103043.13;2065313;28;1854;-62
2024/01/28 05:12:11;;;;;;;;;;;;;;;19.90;41.97;103050.97;2064741;28;1798;-62
2024/01/28 05:13:13;;;;;;;;;;;;;;;19.90;41.90;103053.84;2067242;28;2231;-62
2024/01/28 05:14:14;;;;;;;;;;;;;;;19.91;41.83;103064.03;2068428;28;2152;-62
2024/01/28 05:15:17;;;;;;;;;;;;;;;19.91;41.84;103052.53;2064741;28;2345;-62
2024/01/28 05:16:19;;;;;;;;;;;;;;;19.92;42.02;103059.03;2066846;28;1686;-62
2024/01/28 05:17:20;;;;;;;;;;;;;;;19.91;41.85;103048.91;2067831;28;2231;-62
2024/01/28 05:18:21;;;;;;;;;;;;;;;19.92;42.00;103047.53;2068927;28;1629;-62
2024/01/28 05:19:23;;;;;;;;;;;;;;;19.93;41.98;103046.16;2067566;28;2151;-62
2024/01/28 05:20:25;;;;;;;;;;;;;;;19.91;41.96;103052.53;2065178;28;2470;-62
2024/01/28 05:21:26;;;;;;;;;;;;;;;19.92;41.97;103048.28;2070719;28;1717;-62